Time;durP1;ratioP1;P1;durP2;ratioP2;P2;SDS_P1;SDS_P2;PMS_P1;PMS_P2;Temp;Humidity;BMP_temperature;BMP_pressure;BME280_temperature;BME280_humidity;BME280_pressure;Samples;Min_cycle;Max_cycle;Signal;HPM_P1;HPM_P2
2022/09/26 00:01:51;;;;;;;4.85;1.10;;;14.30;99.90;;;;;;6161156;23;20021;-78
2022/09/26 00:04:25;;;;;;;3.03;1.15;;;14.30;99.90;;;;;;6210618;23;20070;-78
2022/09/26 00:06:53;;;;;;;3.35;1.10;;;14.20;99.90;;;;;;6210600;23;20021;-77
2022/09/26 00:09:21;;;;;;;3.17;0.88;;;14.20;99.90;;;;;;6212134;23;20020;-78
2022/09/26 00:11:46;;;;;;;3.10;1.08;;;14.20;99.90;;;;;;6184965;23;20027;-77
2022/09/26 00:14:19;;;;;;;4.72;1.23;;;14.20;99.90;;;;;;6184209;23;20341;-78
2022/09/26 00:16:44;;;;;;;3.53;1.05;;;14.20;99.90;;;;;;6185732;23;20020;-77
2022/09/26 00:19:10;;;;;;;3.97;1.20;;;14.20;99.90;;;;;;6184896;23;20017;-77
2022/09/26 00:21:37;;;;;;;4.70;1.35;;;14.20;99.90;;;;;;6160824;23;20040;-77
2022/09/26 00:24:03;;;;;;;3.30;1.20;;;14.20;99.90;;;;;;6183719;23;20021;-77
2022/09/26 00:26:30;;;;;;;4.43;1.40;;;14.20;99.90;;;;;;6185271;23;20027;-77
2022/09/26 00:28:56;;;;;;;5.20;1.20;;;14.20;99.90;;;;;;6185358;23;20039;-77
2022/09/26 00:31:25;;;;;;;3.28;1.30;;;14.30;99.90;;;;;;6210347;23;20091;-78
2022/09/26 00:33:51;;;;;;;4.57;1.40;;;14.30;99.90;;;;;;6208809;23;20008;-77
2022/09/26 00:36:17;;;;;;;4.43;1.30;;;14.30;99.90;;;;;;6160046;23;20498;-78
2022/09/26 00:38:43;;;;;;;5.25;1.20;;;14.30;99.90;;;;;;6184326;23;20028;-78
2022/09/26 00:41:09;;;;;;;5.15;1.30;;;14.30;99.90;;;;;;6209149;23;20355;-78
2022/09/26 00:43:56;;;;;;;5.80;1.30;;;14.30;99.90;;;;;;6209593;23;20016;-78
2022/09/26 00:46:36;;;;;;;;;;;14.30;99.90;;;;;;6211941;23;20031;-78
2022/09/26 00:49:25;;;;;;;4.75;1.88;;;14.30;99.90;;;;;;6184932;23;19916;-78
2022/09/26 00:52:01;;;;;;;7.82;1.40;;;14.30;99.90;;;;;;6201170;23;20458;-78
2022/09/26 00:54:29;;;;;;;5.15;1.55;;;14.30;99.90;;;;;;6185620;23;20023;-78
2022/09/26 00:57:02;;;;;;;7.38;1.48;;;14.30;99.90;;;;;;6209471;23;20340;-77
2022/09/26 00:59:34;;;;;;;3.47;1.40;;;14.30;99.90;;;;;;6211700;23;20044;-77
2022/09/26 01:02:00;;;;;;;4.85;1.48;;;14.30;99.90;;;;;;6210317;23;20383;-78
2022/09/26 01:04:27;;;;;;;2.65;1.33;;;14.20;99.90;;;;;;6209326;23;20020;-78
2022/09/26 01:06:55;;;;;;;8.93;1.70;;;14.20;99.90;;;;;;6209245;23;20405;-78
2022/09/26 01:09:21;;;;;;;7.72;1.90;;;14.20;99.90;;;;;;6209857;23;20021;-77
2022/09/26 01:11:47;;;;;;;4.07;1.42;;;14.20;99.90;;;;;;6259476;22;20378;-78
2022/09/26 01:14:13;;;;;;;4.50;1.80;;;14.10;99.90;;;;;;6244594;22;20028;-78
2022/09/26 01:16:43;;;;;;;6.85;1.70;;;14.10;99.90;;;;;;6219749;22;20353;-78
2022/09/26 01:19:28;;;;;;;5.05;1.55;;;14.10;99.90;;;;;;6244439;22;20012;-77
2022/09/26 01:22:01;;;;;;;7.68;2.05;;;14.00;99.90;;;;;;6219482;22;20552;-77
2022/09/26 01:24:38;;;;;;;7.20;2.00;;;14.00;99.90;;;;;;6244213;22;20016;-78
2022/09/26 01:27:12;;;;;;;6.30;2.10;;;13.90;99.90;;;;;;6219662;22;20023;-78
2022/09/26 01:30:08;;;;;;;7.07;1.95;;;13.90;99.90;;;;;;6272743;22;20020;-77
2022/09/26 01:32:49;;;;;;;6.67;1.70;;;13.90;99.90;;;;;;6244561;22;20097;-78
2022/09/26 01:35:36;;;;;;;7.28;2.35;;;13.80;99.90;;;;;;6244153;22;20455;-78
2022/09/26 01:38:20;;;;;;;8.05;1.80;;;13.70;99.90;;;;;;6246493;22;20020;-78
2022/09/26 01:41:19;;;;;;;7.53;1.88;;;13.60;99.90;;;;;;6245089;22;20103;-78
2022/09/26 01:44:33;;;;;;;6.18;1.77;;;13.60;99.90;;;;;;6244385;22;20023;-78
2022/09/26 01:47:13;;;;;;;8.30;1.70;;;13.50;99.90;;;;;;6094209;23;20069;-78
2022/09/26 01:50:08;;;;;;;5.35;1.73;;;13.50;99.90;;;;;;6240244;22;20051;-78
2022/09/26 01:53:02;;;;;;;5.60;1.80;;;13.50;99.90;;;;;;6218386;22;20023;-78
2022/09/26 01:55:39;;;;;;;4.82;1.70;;;13.50;99.90;;;;;;6219324;22;20067;-77
2022/09/26 01:58:11;;;;;;;6.65;1.75;;;13.50;99.90;;;;;;6243891;22;20050;-78
2022/09/26 02:00:39;;;;;;;4.50;1.83;;;13.50;99.90;;;;;;6219102;22;20023;-78
2022/09/26 02:03:11;;;;;;;5.50;1.63;;;13.50;99.90;;;;;;6243167;22;20028;-78
2022/09/26 02:05:58;;;;;;;4.40;1.45;;;13.50;99.90;;;;;;6218683;22;20015;-78
2022/09/26 02:08:59;;;;;;;6.55;1.40;;;13.50;99.90;;;;;;6218777;22;20538;-78
2022/09/26 02:11:25;;;;;;;5.20;1.50;;;13.50;99.90;;;;;;6144364;23;20849;-77
2022/09/26 02:14:33;;;;;;;5.55;1.67;;;13.50;99.90;;;;;;6183130;23;20086;-77
2022/09/26 02:17:13;;;;;;;4.35;1.30;;;13.50;99.90;;;;;;6184004;23;20094;-78
2022/09/26 02:19:55;;;;;;;4.05;1.50;;;13.50;99.90;;;;;;6210606;23;20078;-78
2022/09/26 02:22:26;;;;;;;7.47;1.63;;;13.50;99.90;;;;;;6182843;23;20021;-78
2022/09/26 02:24:52;;;;;;;4.68;1.40;;;13.50;99.90;;;;;;6209114;23;20340;-77
2022/09/26 02:27:18;;;;;;;5.75;1.30;;;13.50;99.90;;;;;;6208432;23;20395;-78
2022/09/26 02:29:44;;;;;;;3.38;1.40;;;13.50;99.90;;;;;;6234440;23;20028;-78
2022/09/26 02:32:17;;;;;;;3.55;1.30;;;13.50;99.90;;;;;;6208097;23;20020;-78
2022/09/26 02:34:45;;;;;;;3.42;1.33;;;13.50;99.90;;;;;;6208178;23;20021;-78
2022/09/26 02:37:13;;;;;;;4.55;1.67;;;13.50;99.90;;;;;;6208763;23;20016;-78
2022/09/26 02:39:41;;;;;;;3.50;1.27;;;13.40;99.90;;;;;;6208754;23;20503;-78
2022/09/26 02:42:35;;;;;;;5.43;1.40;;;13.40;99.90;;;;;;6207354;23;20020;-78
2022/09/26 02:45:10;;;;;;;3.08;1.13;;;13.40;99.90;;;;;;6208820;23;20021;-78
2022/09/26 02:47:51;;;;;;;3.38;1.40;;;13.30;99.90;;;;;;6208304;23;20035;-78
2022/09/26 02:50:32;;;;;;;2.58;1.50;;;13.30;99.90;;;;;;6182734;23;20103;-78
2022/09/26 02:53:06;;;;;;;3.20;1.30;;;13.30;99.90;;;;;;6207954;23;20016;-77
2022/09/26 02:56:02;;;;;;;3.42;1.40;;;13.30;99.90;;;;;;6207717;23;20027;-78
2022/09/26 02:58:48;;;;;;;5.20;1.25;;;13.20;99.90;;;;;;6185217;23;20031;-78
2022/09/26 03:01:30;;;;;;;5.65;1.88;;;13.20;99.90;;;;;;6174279;23;20475;-78
2022/09/26 03:04:13;;;;;;;6.72;1.70;;;13.20;99.90;;;;;;6210273;23;20036;-78
2022/09/26 03:06:43;;;;;;;3.72;1.30;;;13.20;99.90;;;;;;6211294;23;20455;-78
2022/09/26 03:09:11;;;;;;;7.35;1.77;;;13.20;99.90;;;;;;6209608;23;20024;-78
2022/09/26 03:11:38;;;;;;;6.40;1.70;;;13.20;99.90;;;;;;6184989;23;20016;-78
2022/09/26 03:14:06;;;;;;;4.55;1.30;;;13.20;99.90;;;;;;6211212;23;20108;-77
2022/09/26 03:16:38;;;;;;;2.75;1.33;;;13.20;99.90;;;;;;6185174;23;20023;-77
2022/09/26 03:19:30;;;;;;;4.78;1.60;;;13.20;99.90;;;;;;6184080;23;20344;-78
2022/09/26 03:21:58;;;;;;;2.42;1.40;;;13.20;99.90;;;;;;6197065;23;20352;-77
2022/09/26 03:24:25;;;;;;;3.80;1.10;;;13.20;99.90;;;;;;6209130;23;20023;-78
2022/09/26 03:26:51;;;;;;;5.45;1.50;;;13.20;99.90;;;;;;6209910;23;20679;-78
2022/09/26 03:29:18;;;;;;;5.10;1.70;;;13.10;99.90;;;;;;6209203;23;20225;-78
2022/09/26 03:31:45;;;;;;;3.35;1.88;;;13.10;99.90;;;;;;6184456;23;20021;-76
2022/09/26 03:34:11;;;;;;;5.10;1.52;;;13.20;99.90;;;;;;6211823;23;20340;-76
2022/09/26 03:36:38;;;;;;;5.45;1.42;;;13.10;99.90;;;;;;6209417;23;20026;-78
2022/09/26 03:39:04;;;;;;;3.33;1.25;;;13.10;99.90;;;;;;6184430;23;20024;-76
2022/09/26 03:41:33;;;;;;;3.42;1.48;;;13.10;99.90;;;;;;6184776;23;20656;-79
2022/09/26 03:43:59;;;;;;;3.10;1.40;;;13.10;99.90;;;;;;6184433;23;20456;-76
2022/09/26 03:46:25;;;;;;;5.35;1.60;;;13.10;99.90;;;;;;6209266;23;20104;-77
2022/09/26 03:48:51;;;;;;;6.38;1.50;;;13.00;99.90;;;;;;6185040;23;20048;-76
2022/09/26 03:51:17;;;;;;;4.70;1.60;;;13.10;99.90;;;;;;6210122;23;20095;-76
2022/09/26 03:53:45;;;;;;;3.22;1.35;;;13.00;99.90;;;;;;6208902;23;20048;-76
2022/09/26 03:56:17;;;;;;;6.13;1.20;;;13.00;99.90;;;;;;6207857;23;20108;-76
2022/09/26 03:58:44;;;;;;;2.95;1.40;;;13.00;99.90;;;;;;6210527;23;20016;-76
2022/09/26 04:01:13;;;;;;;5.93;1.70;;;13.00;99.90;;;;;;6209998;23;20021;-79
2022/09/26 04:03:40;;;;;;;2.67;1.40;;;13.00;99.90;;;;;;6210560;23;20020;-76
2022/09/26 04:06:08;;;;;;;4.32;1.65;;;13.00;99.90;;;;;;6208905;23;20027;-76
2022/09/26 04:08:38;;;;;;;4.30;1.65;;;13.00;99.90;;;;;;6183440;23;20102;-76
2022/09/26 04:11:08;;;;;;;3.08;1.40;;;13.00;99.90;;;;;;6209690;22;20017;-77
2022/09/26 04:13:34;;;;;;;4.43;1.60;;;13.00;99.90;;;;;;6182459;23;20051;-77
2022/09/26 04:16:00;;;;;;;4.30;1.60;;;13.00;99.90;;;;;;6211578;23;20020;-77
2022/09/26 04:18:27;;;;;;;3.47;1.83;;;12.90;99.90;;;;;;6208691;23;20066;-77
2022/09/26 04:21:11;;;;;;;4.22;1.60;;;13.00;99.90;;;;;;6210263;23;20020;-77
2022/09/26 04:23:39;;;;;;;6.07;1.88;;;12.90;99.90;;;;;;6208387;23;20116;-77
2022/09/26 04:26:14;;;;;;;5.07;1.33;;;12.90;99.90;;;;;;6210224;23;20050;-77
2022/09/26 04:28:40;;;;;;;3.28;1.60;;;12.80;99.90;;;;;;6211213;23;20020;-77
2022/09/26 04:31:09;;;;;;;5.30;2.00;;;12.90;99.90;;;;;;6209981;23;20020;-77
2022/09/26 04:33:35;;;;;;;4.75;1.80;;;12.90;99.90;;;;;;6208306;23;20432;-76
2022/09/26 04:36:03;;;;;;;5.47;1.92;;;12.90;99.90;;;;;;6185680;23;20030;-76
2022/09/26 04:38:32;;;;;;;5.60;1.95;;;12.90;99.90;;;;;;6208383;23;20027;-77
2022/09/26 04:41:11;;;;;;;5.78;1.65;;;12.80;99.90;;;;;;6184425;23;20025;-77
2022/09/26 04:43:38;;;;;;;4.65;1.63;;;12.90;99.90;;;;;;6183566;23;20024;-76
2022/09/26 04:46:12;;;;;;;2.47;1.70;;;12.80;99.90;;;;;;6183673;23;20150;-76
2022/09/26 04:48:38;;;;;;;7.50;2.20;;;12.90;99.90;;;;;;6210250;23;20048;-77
2022/09/26 04:51:12;;;;;;;5.38;1.80;;;12.90;99.90;;;;;;6211781;23;20032;-77
2022/09/26 04:53:39;;;;;;;5.55;1.40;;;12.80;99.90;;;;;;6208572;23;20039;-77
2022/09/26 04:56:08;;;;;;;4.65;2.00;;;12.80;99.90;;;;;;6210548;23;20078;-77
2022/09/26 04:58:34;;;;;;;3.78;1.50;;;12.80;99.90;;;;;;6209013;23;20024;-76
2022/09/26 05:01:05;;;;;;;4.38;1.70;;;13.00;99.90;;;;;;6211884;23;20025;-77
2022/09/26 05:03:31;;;;;;;5.07;1.77;;;12.80;99.90;;;;;;6208208;23;20082;-76
2022/09/26 05:05:57;;;;;;;6.10;1.48;;;12.80;99.90;;;;;;6208694;23;20020;-77
2022/09/26 05:08:24;;;;;;;3.28;1.58;;;12.80;99.90;;;;;;6212041;23;20382;-77
2022/09/26 05:10:52;;;;;;;4.13;1.50;;;12.70;99.90;;;;;;6185745;23;20067;-77
2022/09/26 05:13:18;;;;;;;5.22;1.70;;;12.70;99.90;;;;;;6209864;23;20063;-76
2022/09/26 05:15:44;;;;;;;4.32;1.77;;;12.80;99.90;;;;;;6209241;23;20020;-77
2022/09/26 05:18:10;;;;;;;5.35;1.52;;;12.70;99.90;;;;;;6185211;23;20444;-76
2022/09/26 05:20:37;;;;;;;5.50;1.80;;;12.70;99.90;;;;;;6135563;23;20025;-77
2022/09/26 05:23:06;;;;;;;5.90;1.70;;;12.60;99.90;;;;;;6182895;23;20020;-77
2022/09/26 05:28:24;;;;;;;4.65;2.13;;;12.60;99.90;;;;;;6208681;23;20032;-78
2022/09/26 05:30:51;;;;;;;5.18;1.63;;;12.60;99.90;;;;;;6209011;23;20025;-79
2022/09/26 05:33:18;;;;;;;3.80;1.60;;;12.60;99.90;;;;;;6184423;23;20039;-78
2022/09/26 05:35:48;;;;;;;6.00;1.80;;;12.60;99.90;;;;;;6209255;23;20017;-78
2022/09/26 05:38:14;;;;;;;4.65;1.90;;;12.50;99.90;;;;;;6184055;23;20017;-78
2022/09/26 05:40:55;;;;;;;6.45;1.95;;;12.50;99.90;;;;;;6183518;23;20424;-78
2022/09/26 05:43:26;;;;;;;5.97;2.17;;;12.50;99.90;;;;;;6209333;23;20019;-78
2022/09/26 05:46:05;;;;;;;6.20;1.90;;;12.50;99.90;;;;;;6210556;23;20075;-78
2022/09/26 05:48:33;;;;;;;4.18;1.80;;;12.50;99.90;;;;;;6187388;23;20020;-78
2022/09/26 05:51:11;;;;;;;3.25;1.90;;;12.50;99.90;;;;;;6185630;23;20027;-78
2022/09/26 05:53:42;;;;;;;6.05;2.20;;;12.50;99.90;;;;;;6184164;23;20025;-78
2022/09/26 05:56:09;;;;;;;3.53;1.88;;;12.50;99.90;;;;;;6210029;23;20027;-78
2022/09/26 05:58:37;;;;;;;5.43;1.83;;;12.50;99.90;;;;;;6183774;23;20075;-78
2022/09/26 06:01:05;;;;;;;5.10;1.95;;;12.50;99.90;;;;;;6185751;23;20019;-78
2022/09/26 06:03:34;;;;;;;4.10;1.90;;;12.50;99.90;;;;;;6183902;23;20024;-79
2022/09/26 06:06:10;;;;;;;5.55;2.30;;;12.50;99.90;;;;;;6136973;23;20024;-78
2022/09/26 06:08:37;;;;;;;6.65;1.98;;;12.50;99.90;;;;;;6209087;23;20362;-77
2022/09/26 06:11:06;;;;;;;4.63;1.83;;;12.60;99.90;;;;;;6208438;22;20024;-76
2022/09/26 06:13:33;;;;;;;5.22;2.00;;;12.60;99.90;;;;;;6208374;23;20012;-77
2022/09/26 06:16:07;;;;;;;7.10;2.00;;;12.60;99.90;;;;;;6183791;23;20055;-77
2022/09/26 06:18:37;;;;;;;3.38;2.05;;;12.60;99.90;;;;;;6207007;23;20332;-77
2022/09/26 06:21:08;;;;;;;4.90;2.03;;;12.60;99.90;;;;;;6209477;23;20017;-77
2022/09/26 06:23:35;;;;;;;6.75;2.00;;;12.60;99.90;;;;;;6181786;23;20020;-78
2022/09/26 06:26:02;;;;;;;5.15;1.90;;;12.60;99.90;;;;;;6209342;23;20028;-78
2022/09/26 06:28:29;;;;;;;3.97;1.92;;;12.70;99.90;;;;;;6182897;23;20044;-77
2022/09/26 06:30:56;;;;;;;4.60;1.70;;;12.70;99.90;;;;;;6209062;23;20046;-77
2022/09/26 06:33:22;;;;;;;5.05;1.75;;;12.70;99.90;;;;;;6209252;23;20016;-78
2022/09/26 06:35:59;;;;;;;4.78;2.25;;;12.70;99.90;;;;;;6208892;23;20498;-77
2022/09/26 06:38:24;;;;;;;7.18;2.20;;;12.70;99.90;;;;;;6210802;23;20020;-77
2022/09/26 06:40:51;;;;;;;6.40;2.20;;;12.70;99.90;;;;;;6212095;23;20461;-77
2022/09/26 06:43:17;;;;;;;4.78;1.92;;;12.60;99.90;;;;;;6185652;23;20028;-78
2022/09/26 06:45:44;;;;;;;4.53;1.80;;;12.60;99.90;;;;;;6184503;23;20016;-78
2022/09/26 06:48:10;;;;;;;5.55;2.30;;;12.60;99.90;;;;;;6185937;23;20025;-77
2022/09/26 06:50:36;;;;;;;5.47;2.25;;;12.60;99.90;;;;;;6184915;23;20036;-77
2022/09/26 06:53:05;;;;;;;6.15;2.20;;;12.60;99.90;;;;;;6210316;23;20012;-79
2022/09/26 06:55:31;;;;;;;4.65;1.70;;;12.60;99.90;;;;;;6185843;23;20020;-78
2022/09/26 06:57:57;;;;;;;6.28;2.10;;;12.60;99.90;;;;;;6211842;23;20024;-79
2022/09/26 07:00:24;;;;;;;19.95;3.33;;;12.70;99.90;;;;;;6185814;23;20067;-78
2022/09/26 07:02:54;;;;;;;6.05;2.95;;;12.70;99.90;;;;;;6210100;23;20021;-78
2022/09/26 07:05:21;;;;;;;6.32;2.00;;;12.70;99.90;;;;;;6210807;23;20020;-78
2022/09/26 07:07:47;;;;;;;138.48;12.82;;;12.70;99.90;;;;;;6185324;23;20124;-79
2022/09/26 07:10:15;;;;;;;7.10;2.42;;;12.80;99.90;;;;;;6218504;22;20440;-78
2022/09/26 07:12:45;;;;;;;10.00;2.15;;;12.80;99.90;;;;;;6220149;22;20027;-79
2022/09/26 07:15:13;;;;;;;4.18;1.80;;;12.80;99.90;;;;;;6197160;22;20026;-78
2022/09/26 07:17:41;;;;;;;7.18;2.35;;;12.80;99.90;;;;;;6245462;22;20023;-77
2022/09/26 07:20:18;;;;;;;3.30;1.63;;;12.80;99.90;;;;;;6221097;22;20019;-78
2022/09/26 07:22:45;;;;;;;5.43;2.00;;;12.80;99.90;;;;;;6220111;22;20059;-78
2022/09/26 07:25:11;;;;;;;3.53;1.67;;;12.80;99.90;;;;;;6219777;22;20081;-78
2022/09/26 07:27:40;;;;;;;4.63;1.60;;;12.80;99.90;;;;;;6215249;22;20023;-78
2022/09/26 07:30:12;;;;;;;5.15;1.92;;;12.80;99.90;;;;;;6191056;22;20030;-78
2022/09/26 07:32:38;;;;;;;5.53;1.80;;;12.80;99.90;;;;;;6243043;22;20015;-77
2022/09/26 07:35:04;;;;;;;6.15;2.20;;;12.80;99.90;;;;;;6167699;22;20608;-77
2022/09/26 07:37:30;;;;;;;5.35;1.83;;;12.80;99.90;;;;;;6241619;22;20037;-76
2022/09/26 07:39:56;;;;;;;7.35;2.00;;;12.90;99.90;;;;;;6243359;22;20077;-78
2022/09/26 07:42:22;;;;;;;4.13;1.92;;;12.90;99.90;;;;;;6217913;22;20054;-78
2022/09/26 07:44:48;;;;;;;7.50;2.03;;;12.90;99.90;;;;;;6243097;22;20031;-78
2022/09/26 07:50:11;;;;;;;5.22;1.88;;;12.90;99.90;;;;;;6243340;22;20024;-78
2022/09/26 07:52:38;;;;;;;6.68;1.90;;;12.90;99.90;;;;;;6194952;22;20023;-78
2022/09/26 07:55:06;;;;;;;5.35;2.30;;;13.00;99.90;;;;;;6244147;22;20128;-78
2022/09/26 07:57:34;;;;;;;9.02;2.40;;;13.00;99.90;;;;;;6270514;22;20026;-77
2022/09/26 08:00:10;;;;;;;4.13;2.00;;;13.00;99.90;;;;;;6245934;22;20567;-78
2022/09/26 08:02:36;;;;;;;6.03;2.00;;;13.00;99.90;;;;;;6220045;22;20024;-79
2022/09/26 08:05:03;;;;;;;6.25;2.35;;;13.00;99.90;;;;;;6246836;22;20073;-78
2022/09/26 08:07:30;;;;;;;5.15;1.88;;;13.00;99.90;;;;;;6243881;22;20023;-78
2022/09/26 08:09:57;;;;;;;7.38;2.42;;;12.90;99.90;;;;;;6193231;22;20016;-78
2022/09/26 08:12:25;;;;;;;4.00;1.90;;;12.80;99.90;;;;;;6219919;22;20397;-77
2022/09/26 08:14:51;;;;;;;7.40;2.40;;;12.80;99.90;;;;;;6242783;22;20043;-78
2022/09/26 08:17:21;;;;;;;6.63;2.03;;;12.80;99.90;;;;;;6244858;22;20019;-78
2022/09/26 08:19:46;;;;;;;6.43;2.40;;;12.70;99.90;;;;;;6247060;22;20099;-79
2022/09/26 08:22:13;;;;;;;7.60;2.50;;;12.70;99.90;;;;;;6221188;22;20047;-78
2022/09/26 08:24:39;;;;;;;5.35;2.60;;;12.70;99.90;;;;;;6245605;22;20031;-78
2022/09/26 08:27:05;;;;;;;5.68;2.28;;;12.60;99.90;;;;;;6221429;22;20023;-78
2022/09/26 08:29:31;;;;;;;4.80;2.28;;;12.60;99.90;;;;;;6247018;22;20450;-78
2022/09/26 08:31:57;;;;;;;4.43;2.40;;;12.60;99.90;;;;;;6194713;22;20071;-78
2022/09/26 08:34:23;;;;;;;5.93;2.83;;;12.60;99.90;;;;;;6220703;22;20031;-77
2022/09/26 08:36:53;;;;;;;7.47;2.53;;;12.50;99.90;;;;;;6245113;22;20015;-76
2022/09/26 08:39:22;;;;;;;5.20;2.20;;;12.50;99.90;;;;;;6217848;22;20012;-77
2022/09/26 08:41:57;;;;;;;3.83;1.90;;;12.50;99.90;;;;;;6168417;22;20022;-77
2022/09/26 08:44:35;;;;;;;4.68;2.13;;;12.50;99.90;;;;;;6244639;22;20020;-77
2022/09/26 08:47:10;;;;;;;5.25;2.30;;;12.50;99.90;;;;;;6220891;22;20024;-79
2022/09/26 08:50:10;;;;;;;3.75;1.98;;;12.50;99.90;;;;;;6248683;22;20092;-78
2022/09/26 08:53:13;;;;;;;5.35;2.67;;;12.50;99.90;;;;;;6247011;22;20023;-77
2022/09/26 08:55:43;;;;;;;7.05;2.60;;;12.50;99.90;;;;;;6220105;22;20068;-77
2022/09/26 08:58:19;;;;;;;6.72;2.28;;;12.60;99.90;;;;;;6223614;22;20024;-78
2022/09/26 09:00:50;;;;;;;5.53;2.40;;;12.60;99.90;;;;;;6244507;22;20015;-76
2022/09/26 09:03:15;;;;;;;4.80;2.40;;;12.50;99.90;;;;;;6244503;22;20443;-77
2022/09/26 09:06:02;;;;;;;4.68;2.40;;;12.50;99.90;;;;;;6243214;22;20018;-77
2022/09/26 09:08:37;;;;;;;6.05;2.63;;;12.50;99.90;;;;;;6218353;22;20102;-77
2022/09/26 09:11:22;;;;;;;4.18;2.10;;;12.60;99.90;;;;;;6243236;22;20024;-77
2022/09/26 09:14:21;;;;;;;6.05;2.65;;;12.60;99.90;;;;;;6217981;22;20011;-77
2022/09/26 09:17:23;;;;;;;4.05;2.53;;;12.60;99.90;;;;;;6244526;22;20038;-78
2022/09/26 09:20:00;;;;;;;5.45;2.70;;;12.60;99.90;;;;;;6197102;22;20066;-79
2022/09/26 09:22:54;;;;;;;6.75;2.88;;;12.60;99.90;;;;;;6244847;22;20034;-78
2022/09/26 09:25:42;;;;;;;6.25;3.10;;;12.60;99.90;;;;;;6220279;22;20011;-78
2022/09/26 09:28:33;;;;;;;4.78;2.72;;;12.60;99.90;;;;;;6200610;22;20024;-79
2022/09/26 09:31:03;;;;;;;4.40;2.88;;;12.60;99.90;;;;;;6244769;22;20095;-78
2022/09/26 09:33:37;;;;;;;4.75;2.72;;;12.60;99.90;;;;;;6245457;22;20027;-78
2022/09/26 09:36:27;;;;;;;3.65;2.58;;;12.60;99.90;;;;;;6246247;22;20016;-78
2022/09/26 09:39:01;;;;;;;4.05;2.70;;;12.60;99.90;;;;;;6244564;22;20435;-77
2022/09/26 09:41:48;;;;;;;4.68;2.70;;;12.60;99.90;;;;;;6220287;22;20070;-78
2022/09/26 09:44:33;;;;;;;3.00;2.60;;;12.60;99.90;;;;;;6246078;22;20016;-78
2022/09/26 09:46:59;;;;;;;5.68;2.58;;;12.70;99.90;;;;;;6220232;22;20023;-78
2022/09/26 09:49:26;;;;;;;3.72;2.55;;;12.70;99.90;;;;;;6244694;22;20061;-80
2022/09/26 09:52:09;;;;;;;6.22;2.78;;;12.80;99.90;;;;;;6169131;22;20019;-77
2022/09/26 09:54:58;;;;;;;4.75;2.83;;;12.80;99.90;;;;;;6244470;22;20016;-78
2022/09/26 09:57:53;;;;;;;5.80;2.85;;;12.80;99.90;;;;;;6244305;22;20098;-78
2022/09/26 10:00:24;;;;;;;3.60;2.55;;;12.70;99.90;;;;;;6210852;22;20015;-78
2022/09/26 10:03:29;;;;;;;4.70;2.53;;;12.70;99.90;;;;;;6218625;22;20020;-78
2022/09/26 10:06:00;;;;;;;4.65;2.30;;;12.70;99.90;;;;;;6218279;22;20459;-80
2022/09/26 10:08:34;;;;;;;3.78;2.45;;;12.70;99.90;;;;;;6244404;22;20474;-78
2022/09/26 10:11:27;;;;;;;4.05;2.92;;;12.70;99.90;;;;;;6218124;22;20111;-79
2022/09/26 10:13:55;;;;;;;3.60;2.35;;;12.80;99.90;;;;;;6220276;22;20054;-79
2022/09/26 10:16:22;;;;;;;6.28;2.47;;;12.80;99.90;;;;;;6245788;22;20342;-79
2022/09/26 10:19:06;;;;;;;3.97;2.70;;;12.80;99.90;;;;;;6245555;22;20016;-79
2022/09/26 10:21:47;;;;;;;4.72;3.13;;;12.90;99.90;;;;;;6245587;22;20016;-79
2022/09/26 10:24:39;;;;;;;3.72;2.50;;;12.90;99.90;;;;;;6246103;22;20530;-80
2022/09/26 10:27:22;;;;;;;3.75;2.45;;;13.00;99.90;;;;;;6245009;22;20016;-79
2022/09/26 10:29:57;;;;;;;4.68;2.30;;;13.00;99.90;;;;;;6245398;22;20015;-79
2022/09/26 10:32:24;;;;;;;5.68;2.70;;;13.20;99.90;;;;;;6245175;22;20443;-80
2022/09/26 10:35:19;;;;;;;6.47;2.88;;;13.30;99.90;;;;;;6218749;22;20111;-79
2022/09/26 10:38:06;;;;;;;5.05;3.22;;;13.50;99.90;;;;;;6242834;22;20011;-79
2022/09/26 10:40:44;;;;;;;6.00;3.45;;;13.80;99.90;;;;;;6241849;22;20012;-79
2022/09/26 10:43:31;;;;;;;3.05;2.38;;;13.90;99.90;;;;;;6218617;22;20031;-79
2022/09/26 10:46:10;;;;;;;4.60;2.70;;;14.00;99.90;;;;;;6244229;22;20020;-79
2022/09/26 10:48:46;;;;;;;4.88;2.10;;;14.10;99.90;;;;;;6216986;22;20024;-79
2022/09/26 10:51:43;;;;;;;4.13;2.72;;;14.10;99.90;;;;;;6271803;22;20028;-79
2022/09/26 10:54:15;;;;;;;3.22;2.35;;;14.20;99.90;;;;;;6231150;22;20023;-79
2022/09/26 10:56:46;;;;;;;3.90;2.40;;;14.40;99.90;;;;;;6218370;22;20020;-79
2022/09/26 10:59:15;;;;;;;5.28;2.42;;;14.50;99.90;;;;;;6218052;22;20015;-79
2022/09/26 11:01:45;;;;;;;4.68;2.30;;;14.50;99.90;;;;;;6241759;22;20026;-79
2022/09/26 11:07:26;;;;;;;4.95;2.15;;;14.60;99.90;;;;;;6221367;22;20030;-79
2022/09/26 11:09:56;;;;;;;6.00;1.83;;;14.60;99.90;;;;;;6242723;22;20031;-80
2022/09/26 11:12:26;;;;;;;4.43;2.08;;;14.80;99.90;;;;;;6242009;22;20016;-79
2022/09/26 11:15:03;;;;;;;6.20;1.90;;;15.10;99.90;;;;;;6216686;22;20084;-79
2022/09/26 11:18:03;;;;;;;5.88;2.13;;;15.20;99.90;;;;;;6243669;22;20085;-78
2022/09/26 11:20:48;;;;;;;6.43;1.92;;;15.50;99.90;;;;;;6164194;22;20110;-77
2022/09/26 11:23:44;;;;;;;5.10;1.90;;;15.60;99.90;;;;;;6219304;22;20020;-78
2022/09/26 11:26:48;;;;;;;5.10;2.23;;;15.80;99.90;;;;;;6220967;22;20354;-79
2022/09/26 11:29:23;;;;;;;7.05;2.15;;;15.90;99.90;;;;;;6221056;22;20016;-78
2022/09/26 11:31:49;;;;;;;5.88;1.92;;;16.20;99.90;;;;;;6245277;22;20027;-78
2022/09/26 11:34:35;;;;;;;4.03;1.75;;;16.20;99.90;;;;;;6246167;22;20447;-78
2022/09/26 11:37:29;;;;;;;4.25;2.13;;;16.10;99.90;;;;;;6245005;22;20015;-78
2022/09/26 11:40:20;;;;;;;4.25;1.83;;;16.00;99.90;;;;;;6218316;22;20020;-78
2022/09/26 11:43:12;;;;;;;5.13;1.73;;;15.90;99.90;;;;;;6219600;22;20423;-78
2022/09/26 11:45:57;;;;;;;4.40;1.50;;;15.90;99.90;;;;;;6178907;22;20099;-78
2022/09/26 11:48:36;;;;;;;4.97;1.90;;;15.80;99.90;;;;;;6246914;22;20098;-78
2022/09/26 11:51:33;;;;;;;4.88;2.10;;;15.80;99.90;;;;;;6245206;22;20304;-78
2022/09/26 11:54:17;;;;;;;6.72;1.85;;;15.70;99.90;;;;;;6244427;22;20024;-78
2022/09/26 11:56:49;;;;;;;9.48;1.92;;;15.50;99.90;;;;;;6245410;22;20066;-78
2022/09/26 11:59:46;;;;;;;9.75;2.25;;;15.40;99.90;;;;;;6245834;22;20439;-77
2022/09/26 12:02:22;;;;;;;8.88;1.83;;;15.20;99.90;;;;;;6245141;22;20098;-77
2022/09/26 12:04:53;;;;;;;8.88;2.08;;;14.90;99.90;;;;;;6243317;22;20109;-77
2022/09/26 12:07:57;;;;;;;12.38;2.78;;;14.70;99.90;;;;;;6243804;22;20028;-77
2022/09/26 12:10:30;;;;;;;11.63;2.75;;;14.60;99.90;;;;;;6150193;22;20016;-78
2022/09/26 12:13:33;;;;;;;16.05;2.75;;;14.40;99.90;;;;;;6184752;23;20039;-78
2022/09/26 12:15:58;;;;;;;9.95;2.33;;;14.30;99.90;;;;;;6181650;23;20017;-77
2022/09/26 12:19:04;;;;;;;11.63;2.88;;;14.40;99.90;;;;;;6206666;23;20031;-77
2022/09/26 12:22:27;;;;;;;16.13;2.80;;;14.50;99.90;;;;;;6208288;23;20088;-77
2022/09/26 12:24:58;;;;;;;16.05;2.88;;;14.60;99.90;;;;;;6209472;23;20075;-78
2022/09/26 12:27:48;;;;;;;11.18;2.47;;;14.60;99.90;;;;;;6207921;23;20159;-77
2022/09/26 12:30:28;;;;;;;11.25;2.05;;;14.50;99.90;;;;;;6209285;23;20020;-78
2022/09/26 12:33:05;;;;;;;8.20;1.77;;;14.20;99.90;;;;;;6207283;23;20028;-78
2022/09/26 12:35:37;;;;;;;6.40;1.70;;;14.40;99.90;;;;;;6210240;23;20474;-78
2022/09/26 12:38:24;;;;;;;7.10;1.40;;;14.40;99.90;;;;;;6207655;23;20468;-78
2022/09/26 12:41:15;;;;;;;6.38;1.58;;;14.50;99.90;;;;;;6206166;23;20028;-78
2022/09/26 12:44:00;;;;;;;6.65;1.52;;;15.00;99.90;;;;;;6181038;23;20063;-79
2022/09/26 12:46:50;;;;;;;5.72;1.58;;;15.30;99.90;;;;;;6180579;23;20028;-78
2022/09/26 12:49:31;;;;;;;5.03;1.55;;;15.50;99.90;;;;;;6206718;23;20029;-78
2022/09/26 12:52:26;;;;;;;6.65;1.90;;;15.50;99.90;;;;;;6181412;23;20020;-78
2022/09/26 12:55:03;;;;;;;9.07;1.98;;;15.50;99.90;;;;;;6210420;23;20021;-78
2022/09/26 12:57:37;;;;;;;8.85;1.60;;;15.50;99.90;;;;;;6210300;23;20027;-79
2022/09/26 13:00:12;;;;;;;5.18;1.65;;;15.60;99.90;;;;;;6184761;23;20052;-78
2022/09/26 13:03:15;;;;;;;6.35;2.28;;;15.60;99.90;;;;;;6209876;23;20017;-78
2022/09/26 13:06:02;;;;;;;11.15;2.30;;;15.60;99.90;;;;;;6209159;23;20048;-78
2022/09/26 13:08:35;;;;;;;10.13;2.22;;;15.70;99.90;;;;;;6209418;23;20095;-78
2022/09/26 13:11:10;;;;;;;10.60;2.50;;;16.00;99.90;;;;;;6209086;23;20110;-78
2022/09/26 13:14:11;;;;;;;11.10;2.23;;;16.30;99.90;;;;;;6185795;23;20024;-78
2022/09/26 13:16:39;;;;;;;12.57;2.75;;;16.50;99.90;;;;;;6210538;23;20020;-78
2022/09/26 13:19:33;;;;;;;9.38;2.40;;;16.90;99.90;;;;;;6184779;23;20020;-79
2022/09/26 13:22:03;;;;;;;9.45;2.40;;;17.30;99.90;;;;;;6199457;23;20048;-78
2022/09/26 13:24:51;;;;;;;11.63;2.35;;;17.50;99.90;;;;;;6210376;23;20056;-78
2022/09/26 13:27:47;;;;;;;11.00;2.50;;;17.70;99.90;;;;;;6209994;23;20016;-78
2022/09/26 13:30:34;;;;;;;11.57;2.63;;;17.70;99.90;;;;;;6208657;23;20631;-79
2022/09/26 13:33:20;;;;;;;8.32;2.35;;;17.50;99.90;;;;;;6209559;23;20433;-78
2022/09/26 13:35:50;;;;;;;9.57;2.53;;;17.60;99.90;;;;;;6209712;23;20112;-78